createdAt,value
2018-09-19T00:00:40.813Z,5.57
2018-09-19T00:03:08.968Z,4.40
2018-09-19T00:05:36.771Z,4.60
2018-09-19T00:08:04.623Z,5.00
2018-09-19T00:10:32.673Z,5.37
2018-09-19T00:13:00.822Z,6.57
2018-09-19T00:15:28.799Z,5.63
2018-09-19T00:17:57.909Z,6.23
2018-09-19T00:20:25.762Z,4.60
2018-09-19T00:22:53.678Z,5.40
2018-09-19T00:25:24.919Z,4.83
2018-09-19T00:27:53.836Z,5.30
2018-09-19T00:30:21.764Z,5.47
2018-09-19T00:32:49.655Z,5.30
2018-09-19T00:35:17.633Z,5.27
2018-09-19T00:37:45.510Z,5.80
2018-09-19T00:40:13.402Z,6.27
2018-09-19T00:42:41.322Z,6.60
2018-09-19T00:45:09.240Z,6.73
2018-09-19T00:47:37.168Z,6.07
2018-09-19T00:50:05.290Z,5.97
2018-09-19T00:52:33.327Z,5.60
2018-09-19T00:55:01.225Z,5.37
2018-09-19T00:57:29.236Z,5.47
2018-09-19T00:59:57.205Z,5.60
2018-09-19T01:02:25.058Z,4.97
2018-09-19T01:04:53.000Z,4.87
2018-09-19T01:07:20.959Z,5.30
2018-09-19T01:09:48.866Z,4.30
2018-09-19T01:12:16.755Z,4.63
2018-09-19T01:14:45.750Z,4.57
2018-09-19T01:17:13.626Z,4.37
2018-09-19T01:19:41.615Z,4.33
2018-09-19T01:22:09.498Z,6.60
2018-09-19T01:24:37.431Z,6.63
2018-09-19T01:27:12.290Z,7.70
2018-09-19T01:29:40.217Z,6.40
2018-09-19T01:32:08.503Z,6.10
2018-09-19T01:34:36.496Z,5.27
2018-09-19T01:37:04.593Z,5.37
2018-09-19T01:39:33.653Z,5.80
2018-09-19T01:42:01.653Z,5.20
2018-09-19T01:44:29.573Z,5.60
2018-09-19T01:46:57.502Z,6.13
2018-09-19T01:49:25.450Z,5.93
2018-09-19T01:51:54.269Z,6.83
2018-09-19T01:54:26.530Z,6.30
2018-09-19T01:56:54.739Z,7.10
2018-09-19T01:59:22.659Z,6.73
2018-09-19T02:01:50.550Z,6.13
2018-09-19T02:04:18.420Z,7.03
2018-09-19T02:06:46.327Z,6.53
2018-09-19T02:09:14.152Z,6.40
2018-09-19T02:11:42.603Z,6.37
2018-09-19T02:14:11.511Z,5.60
2018-09-19T02:16:39.757Z,6.87
2018-09-19T02:19:08.031Z,6.10
2018-09-19T02:21:36.010Z,6.07
2018-09-19T02:24:03.897Z,7.37
2018-09-19T02:26:31.782Z,6.43
2018-09-19T02:28:59.728Z,7.43
2018-09-19T02:31:28.118Z,7.00
2018-09-19T02:33:56.446Z,6.00
2018-09-19T02:36:25.524Z,7.23
2018-09-19T02:38:55.115Z,5.97
2018-09-19T02:41:22.970Z,6.57
2018-09-19T02:43:51.471Z,7.40
2018-09-19T02:46:19.435Z,7.40
2018-09-19T02:48:48.292Z,7.27
2018-09-19T02:51:17.293Z,7.33
2018-09-19T02:53:46.599Z,8.67
2018-09-19T02:56:14.693Z,7.30
2018-09-19T02:58:42.819Z,7.00
2018-09-19T03:01:10.681Z,6.77
2018-09-19T03:03:38.608Z,6.73
2018-09-19T03:06:06.551Z,7.93
2018-09-19T03:08:34.618Z,7.80
2018-09-19T03:11:02.563Z,7.67
2018-09-19T03:13:30.458Z,7.83
2018-09-19T03:15:58.355Z,8.17
2018-09-19T03:18:26.233Z,7.43
2018-09-19T03:20:54.143Z,7.73
2018-09-19T03:23:22.011Z,6.60
2018-09-19T03:25:49.877Z,7.03
2018-09-19T03:28:17.709Z,7.30
2018-09-19T03:30:45.627Z,7.20
2018-09-19T03:33:13.546Z,7.13
2018-09-19T03:35:41.399Z,6.80
2018-09-19T03:38:09.313Z,7.60
2018-09-19T03:40:37.178Z,7.53
2018-09-19T03:43:05.048Z,6.50
2018-09-19T03:45:32.954Z,7.60
2018-09-19T03:48:00.828Z,7.67
2018-09-19T03:50:28.812Z,8.27
2018-09-19T03:52:56.843Z,7.80
2018-09-19T03:55:24.812Z,8.00
2018-09-19T03:57:52.699Z,7.30
2018-09-19T04:00:20.624Z,7.60
2018-09-19T04:02:48.579Z,8.20
2018-09-19T04:05:16.549Z,9.00
2018-09-19T04:07:44.461Z,8.80
2018-09-19T04:10:12.340Z,9.37
2018-09-19T04:12:41.143Z,7.43
2018-09-19T04:15:09.056Z,8.43
2018-09-19T04:17:36.976Z,8.57
2018-09-19T04:20:05.108Z,8.73
2018-09-19T04:22:33.075Z,8.53
2018-09-19T04:25:07.779Z,9.07
2018-09-19T04:27:35.791Z,8.23
2018-09-19T04:30:03.928Z,8.47
2018-09-19T04:32:31.829Z,8.70
2018-09-19T04:34:59.719Z,7.67
2018-09-19T04:37:27.602Z,8.43
2018-09-19T04:39:55.519Z,8.37
2018-09-19T04:42:23.440Z,8.33
2018-09-19T04:44:51.343Z,8.40
2018-09-19T04:47:19.450Z,9.23
2018-09-19T04:49:47.426Z,8.63
2018-09-19T04:52:15.364Z,8.70
2018-09-19T04:54:43.371Z,8.30
2018-09-19T04:57:11.344Z,8.20
2018-09-19T04:59:39.320Z,8.80
2018-09-19T05:02:07.299Z,9.20
2018-09-19T05:04:35.162Z,9.90
2018-09-19T05:07:03.208Z,9.17
2018-09-19T05:09:31.184Z,7.70
2018-09-19T05:11:59.196Z,9.27
2018-09-19T05:14:27.133Z,8.63
2018-09-19T05:16:55.150Z,9.23
2018-09-19T05:19:23.071Z,8.87
2018-09-19T05:21:50.994Z,7.40
2018-09-19T05:24:19.125Z,8.93
2018-09-19T05:26:47.135Z,9.03
2018-09-19T05:29:15.090Z,8.10
2018-09-19T05:31:43.071Z,7.50
2018-09-19T05:34:11.010Z,9.53
2018-09-19T05:36:38.956Z,8.63
2018-09-19T05:39:07.664Z,9.13
2018-09-19T05:41:35.688Z,9.47
2018-09-19T05:44:04.008Z,8.63
2018-09-19T05:46:32.388Z,9.30
2018-09-19T05:49:00.649Z,8.80
2018-09-19T05:51:29.306Z,8.60
2018-09-19T05:53:57.324Z,8.43
2018-09-19T05:56:25.440Z,9.23
2018-09-19T05:58:53.338Z,9.30
2018-09-19T06:01:21.307Z,8.17
2018-09-19T06:03:49.239Z,8.93
2018-09-19T06:06:17.130Z,9.30
2018-09-19T06:08:45.054Z,8.70
2018-09-19T06:11:12.927Z,9.03
2018-09-19T06:13:40.818Z,8.93
2018-09-19T06:16:08.878Z,8.80
2018-09-19T06:18:36.790Z,7.90
2018-09-19T06:21:04.836Z,8.33
2018-09-19T06:23:32.765Z,9.40
2018-09-19T06:26:00.910Z,8.37
2018-09-19T06:28:28.844Z,8.90
2018-09-19T06:30:57.562Z,9.40
2018-09-19T06:33:25.529Z,9.03
2018-09-19T06:35:53.479Z,9.27
2018-09-19T06:38:21.590Z,8.70
2018-09-19T06:40:49.614Z,9.13
2018-09-19T06:43:17.470Z,8.17
2018-09-19T06:45:45.376Z,8.50
2018-09-19T06:48:13.218Z,8.83
2018-09-19T06:50:41.183Z,8.83
2018-09-19T06:53:09.145Z,8.73
2018-09-19T06:55:37.087Z,8.07
2018-09-19T06:58:05.329Z,8.37
2018-09-19T07:00:33.201Z,9.00
2018-09-19T07:03:01.055Z,8.63
2018-09-19T07:05:28.889Z,7.93
2018-09-19T07:07:56.788Z,7.83
2018-09-19T07:10:24.772Z,8.70
2018-09-19T07:12:52.623Z,8.77
2018-09-19T07:15:20.539Z,8.60
2018-09-19T07:17:48.455Z,7.30
2018-09-19T07:20:16.404Z,8.37
2018-09-19T07:22:44.351Z,8.43
2018-09-19T07:25:12.251Z,8.03
2018-09-19T07:27:40.138Z,7.47
2018-09-19T07:30:08.142Z,6.97
2018-09-19T07:32:36.042Z,6.50
2018-09-19T07:35:03.985Z,7.30
2018-09-19T07:37:31.834Z,6.90
2018-09-19T07:39:59.814Z,6.70
2018-09-19T07:42:27.717Z,7.30
2018-09-19T07:44:55.571Z,6.70
2018-09-19T07:47:23.406Z,6.95
2018-09-19T07:49:51.216Z,8.88
2018-09-19T07:52:19.155Z,6.72
2018-09-19T07:54:47.283Z,7.67
2018-09-19T07:57:15.143Z,7.35
2018-09-19T07:59:43.666Z,6.50
2018-09-19T08:02:11.703Z,6.70
2018-09-19T08:04:39.582Z,6.90
2018-09-19T08:07:07.728Z,7.25
2018-09-19T08:09:35.593Z,7.05
2018-09-19T08:12:03.478Z,7.42
2018-09-19T08:14:31.850Z,6.62
2018-09-19T08:16:59.966Z,6.83
2018-09-19T08:19:27.704Z,7.50
2018-09-19T08:21:55.626Z,7.55
2018-09-19T08:24:23.416Z,6.78
2018-09-19T08:26:51.237Z,6.67
2018-09-19T08:29:19.054Z,7.97
2018-09-19T08:31:46.940Z,7.72
2018-09-19T08:34:14.799Z,7.35
2018-09-19T08:36:42.577Z,7.28
2018-09-19T08:39:11.067Z,7.35
2018-09-19T08:41:39.018Z,7.25
2018-09-19T08:44:06.910Z,6.97
2018-09-19T08:46:35.075Z,7.08
2018-09-19T08:49:02.909Z,7.10
2018-09-19T08:51:30.769Z,7.75
2018-09-19T08:53:58.692Z,6.78
2018-09-19T08:56:26.465Z,7.03
2018-09-19T08:58:54.383Z,7.58
2018-09-19T09:01:22.373Z,7.45
2018-09-19T09:03:50.248Z,7.35
2018-09-19T09:06:18.150Z,7.10
2018-09-19T09:08:46.278Z,6.65
2018-09-19T09:11:14.290Z,6.87
2018-09-19T09:13:42.168Z,6.72
2018-09-19T09:16:10.070Z,7.45
2018-09-19T09:18:37.933Z,6.85
2018-09-19T09:21:05.800Z,7.10
2018-09-19T09:23:33.891Z,6.60
2018-09-19T09:26:01.831Z,6.42
2018-09-19T09:28:29.684Z,6.08
2018-09-19T09:30:57.583Z,6.28
2018-09-19T09:33:25.507Z,6.08
2018-09-19T09:35:53.377Z,6.08
2018-09-19T09:38:22.477Z,5.70
2018-09-19T09:40:50.338Z,6.60
2018-09-19T09:43:18.243Z,6.95
2018-09-19T09:45:46.144Z,6.42
2018-09-19T09:48:13.963Z,6.35
2018-09-19T09:50:41.709Z,5.20
2018-09-19T09:53:09.568Z,5.60
2018-09-19T09:55:37.299Z,6.25
2018-09-19T09:58:05.082Z,6.37
2018-09-19T10:00:42.434Z,5.85
2018-09-19T10:03:11.408Z,5.90
2018-09-19T10:05:39.518Z,5.70
2018-09-19T10:08:07.766Z,6.00
2018-09-19T10:10:35.962Z,6.25
2018-09-19T10:13:04.129Z,6.03
2018-09-19T10:15:32.011Z,6.05
2018-09-19T10:17:59.846Z,5.95
2018-09-19T10:20:27.693Z,6.30
2018-09-19T10:22:55.938Z,5.78
2018-09-19T10:25:23.731Z,5.67
2018-09-19T10:27:51.530Z,6.58
2018-09-19T10:30:19.433Z,5.75
2018-09-19T10:32:47.260Z,5.28
2018-09-19T10:35:15.047Z,5.37
2018-09-19T10:37:42.840Z,4.80
2018-09-19T10:40:10.694Z,5.92
2018-09-19T10:42:38.590Z,4.75
2018-09-19T10:45:06.889Z,4.95
2018-09-19T10:47:35.412Z,4.42
2018-09-19T10:50:03.334Z,4.72
2018-09-19T10:52:31.329Z,4.45
2018-09-19T10:54:59.237Z,5.08
2018-09-19T10:57:27.188Z,4.12
2018-09-19T10:59:55.082Z,4.50
2018-09-19T11:02:22.989Z,4.37
2018-09-19T11:04:50.650Z,4.92
2018-09-19T11:07:18.539Z,5.25
2018-09-19T11:09:46.553Z,6.92
2018-09-19T11:12:14.570Z,5.35
2018-09-19T11:14:42.427Z,5.17
2018-09-19T11:17:10.357Z,4.25
2018-09-19T11:19:38.284Z,6.15
2018-09-19T11:22:06.319Z,5.42
2018-09-19T11:24:35.543Z,5.75
2018-09-19T11:27:03.442Z,5.22
2018-09-19T11:29:31.281Z,4.55
2018-09-19T11:31:59.232Z,5.87
2018-09-19T11:34:27.752Z,5.70
2018-09-19T11:36:55.585Z,4.47
2018-09-19T11:39:23.641Z,4.92
2018-09-19T11:41:51.627Z,4.00
2018-09-19T11:44:19.524Z,4.62
2018-09-19T11:46:47.475Z,4.78
2018-09-19T11:49:15.664Z,5.05
2018-09-19T11:51:43.586Z,4.60
2018-09-19T11:54:11.434Z,4.75
2018-09-19T11:56:39.369Z,4.85
2018-09-19T11:59:08.110Z,4.53
2018-09-19T12:01:36.168Z,4.42
2018-09-19T12:04:04.143Z,5.20
2018-09-19T12:06:32.160Z,5.80
2018-09-19T12:09:00.175Z,4.95
2018-09-19T12:11:28.145Z,5.30
2018-09-19T12:13:56.286Z,4.87
2018-09-19T12:16:24.407Z,4.28
2018-09-19T12:18:52.382Z,4.08
2018-09-19T12:21:20.352Z,3.90
2018-09-19T12:23:48.482Z,4.87
2018-09-19T12:26:16.616Z,3.85
2018-09-19T12:28:44.659Z,4.22
2018-09-19T12:31:12.694Z,4.05
2018-09-19T12:33:40.684Z,4.25
2018-09-19T12:36:08.866Z,4.62
2018-09-19T12:38:37.450Z,5.12
2018-09-19T12:41:05.831Z,5.60
2018-09-19T12:43:33.983Z,5.25
2018-09-19T12:46:02.709Z,4.85
2018-09-19T12:48:31.014Z,5.30
2018-09-19T12:50:59.348Z,4.55
2018-09-19T12:53:27.550Z,4.60
2018-09-19T12:55:56.084Z,4.72
2018-09-19T12:58:24.066Z,4.42
2018-09-19T13:00:52.459Z,4.62
2018-09-19T13:03:20.643Z,4.65
2018-09-19T13:05:48.574Z,4.05
2018-09-19T13:08:16.561Z,4.20
2018-09-19T13:10:44.482Z,5.25
2018-09-19T13:13:12.519Z,6.12
2018-09-19T13:15:40.451Z,4.60
2018-09-19T13:18:08.391Z,4.58
2018-09-19T13:20:37.596Z,4.35
2018-09-19T13:23:06.157Z,4.62
2018-09-19T13:25:34.719Z,4.10
2018-09-19T13:28:03.285Z,4.28
2018-09-19T13:30:32.211Z,4.53
2018-09-19T13:33:00.319Z,5.05
2018-09-19T13:35:28.334Z,4.65
2018-09-19T13:37:57.170Z,5.15
2018-09-19T13:40:25.178Z,6.67
2018-09-19T13:42:54.263Z,4.97
2018-09-19T13:45:22.643Z,4.70
2018-09-19T13:47:50.534Z,4.85
2018-09-19T13:50:53.502Z,4.60
2018-09-19T13:53:22.007Z,4.33
2018-09-19T13:55:50.729Z,4.50
2018-09-19T13:58:18.719Z,4.78
2018-09-19T14:00:46.791Z,4.03
2018-09-19T14:03:18.608Z,4.37
2018-09-19T14:05:46.643Z,4.40
2018-09-19T14:08:14.704Z,4.33
2018-09-19T14:10:43.596Z,4.33
2018-09-19T14:13:11.615Z,4.25
2018-09-19T14:15:39.891Z,3.70
2018-09-19T14:18:07.995Z,4.30
2018-09-19T14:20:35.873Z,4.83
2018-09-19T14:23:04.530Z,4.47
2018-09-19T14:25:32.624Z,3.85
2018-09-19T14:28:00.740Z,5.05
2018-09-19T14:30:28.728Z,5.35
2018-09-19T14:32:57.246Z,4.65
2018-09-19T14:35:25.393Z,4.40
2018-09-19T14:37:53.248Z,5.15
2018-09-19T14:40:21.250Z,5.42
2018-09-19T14:42:49.319Z,4.50
2018-09-19T14:45:17.245Z,4.37
2018-09-19T14:47:45.623Z,4.62
2018-09-19T14:50:13.682Z,4.58
2018-09-19T14:52:41.631Z,4.45
2018-09-19T14:55:09.683Z,4.30
2018-09-19T14:57:37.523Z,3.98
2018-09-19T15:00:05.887Z,4.62
2018-09-19T15:02:33.801Z,4.45
2018-09-19T15:05:01.682Z,4.87
2018-09-19T15:07:29.590Z,4.83
2018-09-19T15:09:57.502Z,4.45
2018-09-19T15:12:25.376Z,3.98
2018-09-19T15:14:53.354Z,4.37
2018-09-19T15:17:21.182Z,4.65
2018-09-19T15:19:49.831Z,4.90
2018-09-19T15:22:17.738Z,4.08
2018-09-19T15:24:45.698Z,4.75
2018-09-19T15:27:13.659Z,4.72
2018-09-19T15:29:45.456Z,4.20
2018-09-19T15:32:13.371Z,5.08
2018-09-19T15:34:41.222Z,4.67
2018-09-19T15:37:09.122Z,5.22
2018-09-19T15:39:36.987Z,4.72
2018-09-19T15:42:04.987Z,4.35
2018-09-19T15:44:32.883Z,4.45
2018-09-19T15:47:01.143Z,4.80
2018-09-19T15:49:29.147Z,4.60
2018-09-19T15:51:57.138Z,4.80
2018-09-19T15:54:25.161Z,5.00
2018-09-19T15:56:53.115Z,5.00
2018-09-19T15:59:21.133Z,3.98
2018-09-19T16:01:49.107Z,4.90
2018-09-19T16:04:17.090Z,5.40
2018-09-19T16:06:45.078Z,5.22
2018-09-19T16:09:12.998Z,6.00
2018-09-19T16:11:40.980Z,6.47
2018-09-19T16:16:47.382Z,6.08
2018-09-19T16:19:15.274Z,4.70
2018-09-19T16:21:43.252Z,4.33
2018-09-19T16:24:12.393Z,4.05
2018-09-19T16:26:40.299Z,4.35
2018-09-19T16:29:08.322Z,4.15
2018-09-19T16:31:36.568Z,4.35
2018-09-19T16:34:04.601Z,4.45
2018-09-19T16:36:32.623Z,3.93
2018-09-19T16:39:00.573Z,7.50
2018-09-19T16:41:29.319Z,5.90
2018-09-19T16:43:58.218Z,5.40
2018-09-19T16:46:26.127Z,5.07
2018-09-19T16:48:54.233Z,4.63
2018-09-19T16:51:22.177Z,3.90
2018-09-19T16:53:50.151Z,4.47
2018-09-19T16:56:18.192Z,4.47
2018-09-19T16:58:46.117Z,4.27
2018-09-19T17:01:14.995Z,3.97
2018-09-19T17:03:46.381Z,4.33
2018-09-19T17:06:14.340Z,4.77
2018-09-19T17:08:42.349Z,4.20
2018-09-19T17:11:10.301Z,3.90
2018-09-19T17:13:38.352Z,4.30
2018-09-19T17:16:06.516Z,4.10
2018-09-19T17:18:34.515Z,4.40
2018-09-19T17:21:02.486Z,4.43
2018-09-19T17:23:31.723Z,4.00
2018-09-19T17:26:00.728Z,4.73
2018-09-19T17:28:30.195Z,4.60
2018-09-19T17:30:58.214Z,4.77
2018-09-19T17:33:26.115Z,4.90
2018-09-19T17:35:54.009Z,4.90
2018-09-19T17:38:22.004Z,5.97
2018-09-19T17:40:50.604Z,4.60
2018-09-19T17:43:18.674Z,4.37
2018-09-19T17:45:46.951Z,5.10
2018-09-19T17:48:15.522Z,4.23
2018-09-19T17:50:43.520Z,4.93
2018-09-19T17:53:11.653Z,4.60
2018-09-19T17:55:39.652Z,4.83
2018-09-19T17:58:07.748Z,4.03
2018-09-19T18:00:35.807Z,4.50
2018-09-19T18:03:03.886Z,5.27
2018-09-19T18:05:31.902Z,5.07
2018-09-19T18:07:59.963Z,4.63
2018-09-19T18:10:27.971Z,5.03
2018-09-19T18:12:56.001Z,4.97
2018-09-19T18:15:24.156Z,3.87
2018-09-19T18:17:52.191Z,4.50
2018-09-19T18:20:20.176Z,4.60
2018-09-19T18:22:48.134Z,4.93
2018-09-19T18:25:16.094Z,4.67
2018-09-19T18:27:44.106Z,5.43
2018-09-19T18:30:12.079Z,4.53
2018-09-19T18:32:46.398Z,4.70
2018-09-19T18:35:14.440Z,4.73
2018-09-19T18:37:45.778Z,3.63
2018-09-19T18:40:13.773Z,4.47
2018-09-19T18:42:41.760Z,5.17
2018-09-19T18:45:09.830Z,4.57
2018-09-19T18:47:37.723Z,4.97
2018-09-19T18:50:05.996Z,5.33
2018-09-19T18:52:33.872Z,4.27
2018-09-19T18:55:01.985Z,4.80
2018-09-19T18:57:30.012Z,4.77
2018-09-19T18:59:58.087Z,4.80
2018-09-19T19:02:26.063Z,5.13
2018-09-19T19:04:54.043Z,4.93
2018-09-19T19:07:22.060Z,4.50
2018-09-19T19:09:50.152Z,5.30
2018-09-19T19:12:18.202Z,5.27
2018-09-19T19:14:50.784Z,7.23
2018-09-19T19:17:18.702Z,6.90
2018-09-19T19:19:46.992Z,5.43
2018-09-19T19:22:15.024Z,5.50
2018-09-19T19:24:42.989Z,4.97
2018-09-19T19:27:11.264Z,4.97
2018-09-19T19:29:39.517Z,6.23
2018-09-19T19:32:07.647Z,5.33
2018-09-19T19:34:35.582Z,5.70
2018-09-19T19:37:04.030Z,17.13
2018-09-19T19:39:32.028Z,6.73
2018-09-19T19:42:00.011Z,5.90
2018-09-19T19:44:28.184Z,6.83
2018-09-19T19:46:56.221Z,6.17
2018-09-19T19:49:24.279Z,7.97
2018-09-19T19:51:52.413Z,8.80
2018-09-19T19:54:20.487Z,5.73
2018-09-19T19:56:48.866Z,5.77
2018-09-19T19:59:16.946Z,6.37
2018-09-19T20:01:45.418Z,5.50
2018-09-19T20:04:16.007Z,5.80
2018-09-19T20:06:44.385Z,7.10
2018-09-19T20:09:13.259Z,6.47
2018-09-19T20:11:48.642Z,5.90
2018-09-19T20:14:17.445Z,6.50
2018-09-19T20:16:47.529Z,8.63
2018-09-19T20:19:16.056Z,7.43
2018-09-19T20:21:44.837Z,9.20
2018-09-19T20:24:12.856Z,8.10
2018-09-19T20:26:41.787Z,7.87
2018-09-19T20:29:39.738Z,7.03
2018-09-19T20:32:07.898Z,6.23
2018-09-19T20:34:36.192Z,5.83
2018-09-19T20:37:05.177Z,5.37
2018-09-19T20:39:34.263Z,5.77
2018-09-19T20:42:02.329Z,5.87
2018-09-19T20:44:31.993Z,5.63
2018-09-19T20:47:00.000Z,5.80
2018-09-19T20:49:27.918Z,6.03
2018-09-19T20:51:56.031Z,5.40
2018-09-19T20:54:24.056Z,6.70
2018-09-19T20:56:52.196Z,6.57
2018-09-19T20:59:20.271Z,6.63
2018-09-19T21:01:48.197Z,5.73
2018-09-19T21:04:18.199Z,7.97
2018-09-19T21:06:46.428Z,7.23
2018-09-19T21:09:14.539Z,6.53
2018-09-19T21:11:42.518Z,6.60
2018-09-19T21:14:10.481Z,5.97
2018-09-19T21:16:38.652Z,6.00
2018-09-19T21:19:06.858Z,6.13
2018-09-19T21:21:34.912Z,6.20
2018-09-19T21:24:02.813Z,6.80
2018-09-19T21:26:30.880Z,6.20
2018-09-19T21:28:59.033Z,5.23
2018-09-19T21:31:27.169Z,6.30
2018-09-19T21:33:55.103Z,5.13
2018-09-19T21:36:23.662Z,7.33
2018-09-19T21:38:51.848Z,6.30
2018-09-19T21:41:19.850Z,6.53
2018-09-19T21:43:48.039Z,9.13
2018-09-19T21:46:17.565Z,8.63
2018-09-19T21:48:45.779Z,6.93
2018-09-19T21:51:13.917Z,8.27
2018-09-19T21:53:41.955Z,7.00
2018-09-19T21:56:11.732Z,6.50
2018-09-19T21:58:39.750Z,6.70
2018-09-19T22:01:08.209Z,6.10
2018-09-19T22:03:38.417Z,5.93
2018-09-19T22:06:06.900Z,6.53
2018-09-19T22:08:35.420Z,6.43
2018-09-19T22:11:03.578Z,6.10
2018-09-19T22:13:32.819Z,6.23
2018-09-19T22:16:01.256Z,6.70
2018-09-19T22:18:29.432Z,5.70
2018-09-19T22:20:57.616Z,6.50
2018-09-19T22:23:25.891Z,5.43
2018-09-19T22:25:53.868Z,5.63
2018-09-19T22:28:22.051Z,6.53
2018-09-19T22:30:52.604Z,6.27
2018-09-19T22:33:20.511Z,5.93
2018-09-19T22:35:52.614Z,5.87
2018-09-19T22:38:20.587Z,5.43
2018-09-19T22:40:48.606Z,5.53
2018-09-19T22:43:16.754Z,6.50
2018-09-19T22:45:44.677Z,6.67
2018-09-19T22:48:12.775Z,6.07
2018-09-19T22:50:40.743Z,6.93
2018-09-19T22:53:08.653Z,7.10
2018-09-19T22:55:36.610Z,6.30
2018-09-19T22:58:04.655Z,6.33
2018-09-19T23:00:32.557Z,5.63
2018-09-19T23:03:00.611Z,5.70
2018-09-19T23:05:28.470Z,5.60
2018-09-19T23:07:56.409Z,5.37
2018-09-19T23:10:24.607Z,6.37
2018-09-19T23:12:52.556Z,5.87
2018-09-19T23:15:20.506Z,5.97
2018-09-19T23:17:48.443Z,5.57
2018-09-19T23:20:16.316Z,6.07
2018-09-19T23:22:44.278Z,5.90
2018-09-19T23:25:12.383Z,5.53
2018-09-19T23:27:40.571Z,5.47
2018-09-19T23:30:08.511Z,5.77
2018-09-19T23:32:36.630Z,5.03
2018-09-19T23:35:04.489Z,5.00
2018-09-19T23:37:32.377Z,5.40
2018-09-19T23:40:00.310Z,5.60
2018-09-19T23:42:28.891Z,5.00
2018-09-19T23:44:56.858Z,6.13
2018-09-19T23:47:24.913Z,5.00
2018-09-19T23:49:52.879Z,5.67
2018-09-19T23:52:20.699Z,5.17
2018-09-19T23:54:48.595Z,5.23
2018-09-19T23:57:16.545Z,5.60
2018-09-19T23:59:44.750Z,6.33
